Terminal Aerodrome Forecast
Issued by NWS Green Bay, WI

Home | Current Version | Previous Version | Graphics & Text | Print | Product List | Glossary On
Versions: 1 2 3 4 5 6 7 8 9 10 11 12 13 14 15 16 17 18 19 20 21 22 23 24 25 26 27 28 29 30 31 32 33 34 35 36 37
000
FTUS43 KGRB 221500 AAA
TAFGRB
TAF AMD
KGRB 221501Z 2215/2312 22012G22KT P6SM SCT025 BKN050
      TEMPO 2216/2219 BKN025
     FM221900 26013G23KT P6SM SCT020 BKN035
     FM222100 29013G22KT P6SM SCT035 BKN050
     FM230500 33007KT P6SM SKC=

USA.gov is the U.S. government's official web portal to all federal, state and local government web resources and services.